Time;durP1;ratioP1;P1;durP2;ratioP2;P2;SDS_P1;SDS_P2;PMS_P1;PMS_P2;Temp;Humidity;BMP_temperature;BMP_pressure;BME280_temperature;BME280_humidity;BME280_pressure;Samples;Min_cycle;Max_cycle;Signal;HPM_P1;HPM_P2
2023/03/29 00:02:28;;;;;;;1.48;0.43;;;1.90;72.60;;;;;;4993447;28;20048;-81
2023/03/29 00:04:57;;;;;;;1.65;0.50;;;1.90;72.50;;;;;;4988806;28;20043;-81
2023/03/29 00:07:24;;;;;;;7.38;2.22;;;1.90;72.60;;;;;;4972364;28;20046;-81
2023/03/29 00:09:52;;;;;;;4.20;1.17;;;1.90;72.80;;;;;;4990758;28;20060;-81
2023/03/29 00:12:19;;;;;;;5.93;1.42;;;1.90;73.00;;;;;;4973734;28;20109;-80
2023/03/29 00:14:46;;;;;;;4.65;1.00;;;1.90;73.20;;;;;;4968637;28;20050;-80
2023/03/29 00:17:13;;;;;;;4.07;1.10;;;2.00;73.90;;;;;;4960125;28;20073;-81
2023/03/29 00:19:43;;;;;;;5.13;1.10;;;2.00;74.00;;;;;;4969828;28;20536;-80
2023/03/29 00:22:11;;;;;;;2.35;1.00;;;1.90;74.00;;;;;;4972485;28;20050;-80
2023/03/29 00:24:38;;;;;;;3.88;0.90;;;1.80;74.80;;;;;;4970312;28;20066;-81
2023/03/29 00:27:05;;;;;;;2.22;0.90;;;1.80;74.70;;;;;;4986975;28;20038;-81
2023/03/29 00:29:32;;;;;;;3.22;1.00;;;1.80;74.80;;;;;;4979512;28;20054;-80
2023/03/29 00:31:59;;;;;;;2.65;0.75;;;1.80;74.90;;;;;;4984662;28;20042;-80
2023/03/29 00:34:30;;;;;;;2.10;0.85;;;1.70;74.60;;;;;;4969567;28;20055;-80
2023/03/29 00:36:58;;;;;;;3.10;0.70;;;1.70;74.90;;;;;;4971999;28;20042;-81
2023/03/29 00:39:26;;;;;;;4.65;0.47;;;1.70;76.00;;;;;;4970280;28;20599;-81
2023/03/29 00:41:54;;;;;;;1.95;0.60;;;1.70;76.40;;;;;;4984835;28;20054;-81
2023/03/29 00:44:58;;;;;;;1.55;0.82;;;1.60;75.40;;;;;;4990384;28;20050;-81
2023/03/29 00:47:46;;;;;;;3.70;1.05;;;1.60;75.20;;;;;;4983193;28;20534;-80
2023/03/29 00:50:16;;;;;;;3.00;0.80;;;1.70;75.20;;;;;;4974057;28;20058;-81
2023/03/29 00:52:47;;;;;;;3.38;0.60;;;1.50;74.40;;;;;;4967638;28;20047;-80
2023/03/29 00:55:20;;;;;;;1.45;0.65;;;1.50;74.50;;;;;;4969373;28;20052;-80
2023/03/29 00:57:48;;;;;;;3.30;1.00;;;1.50;74.80;;;;;;4984533;28;20047;-81
2023/03/29 01:00:19;;;;;;;2.38;0.40;;;1.50;76.00;;;;;;4971215;28;20528;-81
2023/03/29 01:02:54;;;;;;;1.27;0.63;;;1.40;76.10;;;;;;4967679;28;20055;-81
2023/03/29 01:05:44;;;;;;;3.55;0.70;;;1.30;75.40;;;;;;4984027;28;20050;-80
2023/03/29 01:08:20;;;;;;;1.17;0.40;;;1.40;75.40;;;;;;4991744;28;20047;-81
2023/03/29 01:10:54;;;;;;;2.95;0.30;;;1.40;76.40;;;;;;4986099;28;20038;-80
2023/03/29 01:13:37;;;;;;;5.68;1.38;;;1.40;75.80;;;;;;4977091;28;20135;-81
2023/03/29 01:16:08;;;;;;;18.13;5.32;;;1.30;75.40;;;;;;4971030;28;20054;-81
2023/03/29 01:18:36;;;;;;;13.18;4.22;;;1.20;75.70;;;;;;4966960;28;20057;-81
2023/03/29 01:21:31;;;;;;;26.80;7.55;;;1.20;76.80;;;;;;4970992;28;20046;-81
2023/03/29 01:24:24;;;;;;;11.25;3.58;;;1.20;76.70;;;;;;4995898;28;20038;-81
2023/03/29 01:27:04;;;;;;;6.72;2.10;;;1.10;76.90;;;;;;4968050;28;20501;-80
2023/03/29 01:29:35;;;;;;;4.90;1.88;;;1.10;77.30;;;;;;4973258;28;20058;-80
2023/03/29 01:32:15;;;;;;;2.33;0.98;;;1.00;77.70;;;;;;4984320;28;20054;-80
2023/03/29 01:35:01;;;;;;;3.15;0.90;;;1.00;77.80;;;;;;4983114;28;20046;-81
2023/03/29 01:37:55;;;;;;;2.08;0.60;;;0.90;77.90;;;;;;4985951;28;21801;-81
2023/03/29 01:40:26;;;;;;;3.55;0.50;;;0.90;78.30;;;;;;4986112;28;20403;-80
2023/03/29 01:43:30;;;;;;;2.25;0.65;;;0.90;78.50;;;;;;4987753;28;20058;-80
2023/03/29 01:46:05;;;;;;;3.05;0.95;;;0.90;78.70;;;;;;4986513;28;20073;-80
2023/03/29 01:48:40;;;;;;;4.05;0.55;;;0.90;78.70;;;;;;4970785;28;20104;-80
2023/03/29 01:51:16;;;;;;;3.63;1.02;;;0.90;78.90;;;;;;4969255;28;20462;-80
2023/03/29 01:53:53;;;;;;;3.15;0.60;;;0.90;80.30;;;;;;4987622;28;20112;-81
2023/03/29 01:56:26;;;;;;;2.28;0.68;;;1.00;82.00;;;;;;4987400;28;20066;-80
2023/03/29 01:59:02;;;;;;;2.20;0.70;;;0.90;82.70;;;;;;4971741;28;20502;-80
2023/03/29 02:01:37;;;;;;;2.70;0.65;;;0.90;82.10;;;;;;4985572;28;20046;-81
2023/03/29 02:04:09;;;;;;;2.83;1.10;;;0.90;81.20;;;;;;4977179;28;20058;-81
2023/03/29 02:06:38;;;;;;;2.28;0.88;;;0.80;81.10;;;;;;4986585;28;22776;-79
2023/03/29 02:09:06;;;;;;;3.03;1.13;;;0.80;81.10;;;;;;4986197;28;20042;-80
2023/03/29 02:11:35;;;;;;;2.28;0.70;;;0.80;81.50;;;;;;4984066;28;20077;-81
2023/03/29 02:14:03;;;;;;;2.75;0.80;;;0.70;81.60;;;;;;4975986;28;20054;-80
2023/03/29 02:16:37;;;;;;;1.65;0.73;;;0.70;81.80;;;;;;4985270;28;20042;-81
2023/03/29 02:19:06;;;;;;;4.30;0.73;;;0.70;82.10;;;;;;4972193;28;20058;-81
2023/03/29 02:21:50;;;;;;;2.88;0.88;;;0.70;82.90;;;;;;4969967;28;22734;-81
2023/03/29 02:24:20;;;;;;;2.97;0.57;;;0.70;83.90;;;;;;4982005;28;20387;-80
2023/03/29 02:26:48;;;;;;;4.55;0.77;;;0.60;83.90;;;;;;4969651;28;20453;-81
2023/03/29 02:29:15;;;;;;;3.78;0.80;;;0.60;84.30;;;;;;4967192;28;20554;-81
2023/03/29 02:31:56;;;;;;;5.53;1.13;;;0.60;85.20;;;;;;4983890;28;20054;-80
2023/03/29 02:34:27;;;;;;;3.33;0.65;;;0.60;85.10;;;;;;4985885;28;20113;-81
2023/03/29 02:37:05;;;;;;;4.65;1.38;;;0.60;85.70;;;;;;4986221;28;20058;-81
2023/03/29 02:39:33;;;;;;;4.82;1.42;;;0.40;85.50;;;;;;4992630;28;20568;-81
2023/03/29 02:42:02;;;;;;;4.88;1.33;;;0.40;85.70;;;;;;4968936;28;20072;-80
2023/03/29 02:44:33;;;;;;;5.30;1.70;;;0.40;85.40;;;;;;4984608;28;20038;-80
2023/03/29 02:47:34;;;;;;;4.53;1.48;;;0.30;85.20;;;;;;4991972;28;20181;-79
2023/03/29 02:50:02;;;;;;;2.05;0.88;;;0.30;85.00;;;;;;4986732;28;20035;-79
2023/03/29 02:52:35;;;;;;;3.67;1.17;;;0.30;84.80;;;;;;4969394;28;20757;-80
2023/03/29 02:55:06;;;;;;;4.65;1.38;;;0.30;84.70;;;;;;4982097;28;20145;-80
2023/03/29 02:57:37;;;;;;;5.70;1.05;;;0.30;84.40;;;;;;4984339;28;20054;-80
2023/03/29 03:00:08;;;;;;;4.20;1.02;;;0.40;84.50;;;;;;4985279;28;20483;-79
2023/03/29 03:02:37;;;;;;;4.13;0.55;;;0.40;84.50;;;;;;4984308;28;20172;-79
2023/03/29 03:05:07;;;;;;;4.53;1.17;;;0.40;85.10;;;;;;4982081;28;20054;-80
2023/03/29 03:07:34;;;;;;;1.98;0.65;;;0.40;85.10;;;;;;4968673;28;20054;-80
2023/03/29 03:10:02;;;;;;;5.38;0.88;;;0.40;86.10;;;;;;4982530;28;20045;-79
2023/03/29 03:12:30;;;;;;;2.58;1.05;;;0.40;87.30;;;;;;4975144;28;20097;-79
2023/03/29 03:14:57;;;;;;;2.22;0.80;;;0.30;88.00;;;;;;4970594;28;20139;-80
2023/03/29 03:17:25;;;;;;;2.45;0.73;;;0.30;87.90;;;;;;4969835;28;20133;-79
2023/03/29 03:19:52;;;;;;;3.42;0.90;;;0.30;86.60;;;;;;4970629;28;20058;-80
2023/03/29 03:22:19;;;;;;;2.35;0.85;;;0.30;86.50;;;;;;4965522;28;20501;-79
2023/03/29 03:24:48;;;;;;;4.35;1.27;;;0.30;87.00;;;;;;4983661;28;20054;-80
2023/03/29 03:27:16;;;;;;;4.32;1.38;;;0.20;86.60;;;;;;4982325;28;20065;-80
2023/03/29 03:29:44;;;;;;;3.22;1.13;;;0.20;86.90;;;;;;4973124;28;20058;-80
2023/03/29 03:32:14;;;;;;;3.55;0.77;;;0.20;87.70;;;;;;4991921;28;20556;-80
2023/03/29 03:35:03;;;;;;;3.50;0.80;;;0.20;88.50;;;;;;4973223;28;20046;-80
2023/03/29 03:37:31;;;;;;;2.70;0.88;;;0.10;89.00;;;;;;4973221;28;20076;-80
2023/03/29 03:39:58;;;;;;;3.78;1.05;;;0.10;89.80;;;;;;5004242;28;20058;-79
2023/03/29 03:42:28;;;;;;;3.67;1.23;;;0.00;90.20;;;;;;4985166;28;20054;-80
2023/03/29 03:44:57;;;;;;;7.72;1.35;;;0.00;90.30;;;;;;4972955;28;20058;-79
2023/03/29 03:47:51;;;;;;;5.90;1.60;;;0.00;90.20;;;;;;4974019;28;20046;-80
2023/03/29 03:50:28;;;;;;;13.40;5.18;;;0.00;90.30;;;;;;4970863;28;20050;-79
2023/03/29 03:52:55;;;;;;;11.73;3.88;;;0.00;90.90;;;;;;4971995;28;20038;-80
2023/03/29 03:55:32;;;;;;;8.32;1.80;;;0.00;91.10;;;;;;4975135;28;20133;-80
2023/03/29 03:58:08;;;;;;;3.45;1.02;;;0.00;90.00;;;;;;4984270;28;20062;-80
2023/03/29 04:00:35;;;;;;;6.65;1.42;;;0.00;89.20;;;;;;4970646;28;20379;-80
2023/03/29 04:03:19;;;;;;;3.60;1.15;;;-0.10;89.10;;;;;;4990898;28;22877;-79
2023/03/29 04:05:47;;;;;;;4.75;1.77;;;0.00;88.50;;;;;;4972715;28;20058;-80
2023/03/29 04:08:16;;;;;;;5.47;1.60;;;-0.10;87.80;;;;;;4973766;28;20038;-80
2023/03/29 04:11:04;;;;;;;3.88;1.33;;;-0.10;87.50;;;;;;4987332;28;22662;-79
2023/03/29 04:13:36;;;;;;;5.72;1.95;;;-0.10;87.70;;;;;;4988444;28;20061;-80
2023/03/29 04:16:35;;;;;;;3.28;1.00;;;-0.10;87.30;;;;;;4956278;28;20193;-79
2023/03/29 04:19:20;;;;;;;4.35;1.73;;;-0.10;89.00;;;;;;4986741;28;20299;-79
2023/03/29 04:21:50;;;;;;;3.35;1.20;;;-0.10;90.20;;;;;;4984797;28;20123;-80
2023/03/29 04:24:17;;;;;;;5.45;1.33;;;-0.10;90.50;;;;;;4968638;28;20065;-79
2023/03/29 04:27:01;;;;;;;3.53;1.23;;;-0.10;90.50;;;;;;4990099;28;20054;-80
2023/03/29 04:29:28;;;;;;;4.10;1.27;;;-0.10;91.20;;;;;;4971557;28;20054;-79
2023/03/29 04:32:08;;;;;;;3.85;1.30;;;-0.10;91.70;;;;;;4972792;28;20524;-80
2023/03/29 04:34:44;;;;;;;2.22;0.88;;;-0.20;92.10;;;;;;4970853;28;22271;-79
2023/03/29 04:37:11;;;;;;;7.70;2.72;;;-0.20;92.50;;;;;;4985956;28;20050;-79
2023/03/29 04:39:39;;;;;;;4.35;1.40;;;-0.20;93.20;;;;;;4964057;28;20054;-80
2023/03/29 04:42:07;;;;;;;4.18;1.00;;;-0.10;92.70;;;;;;4972317;28;20069;-80
2023/03/29 04:44:35;;;;;;;3.95;1.52;;;-0.10;92.00;;;;;;4971608;28;20104;-79
2023/03/29 04:47:06;;;;;;;4.10;1.40;;;-0.10;92.20;;;;;;4966164;28;20050;-79
2023/03/29 04:49:36;;;;;;;6.35;2.13;;;-0.20;92.80;;;;;;4983349;28;22610;-79
2023/03/29 04:52:08;;;;;;;3.67;1.23;;;-0.20;92.90;;;;;;4983719;28;20432;-80
2023/03/29 04:54:36;;;;;;;3.47;1.40;;;-0.20;92.60;;;;;;4974519;28;20078;-80
2023/03/29 04:57:24;;;;;;;3.80;1.85;;;-0.10;93.00;;;;;;4984835;28;20062;-79
2023/03/29 04:59:58;;;;;;;5.78;1.90;;;-0.10;92.50;;;;;;4982333;28;20124;-80
2023/03/29 05:02:48;;;;;;;5.05;1.73;;;0.00;92.00;;;;;;4980454;28;20509;-80
2023/03/29 05:05:16;;;;;;;6.05;1.60;;;0.00;91.50;;;;;;4983278;28;20058;-80
2023/03/29 05:07:46;;;;;;;4.07;1.27;;;0.10;91.20;;;;;;4969601;28;20050;-80
2023/03/29 05:10:15;;;;;;;3.05;1.38;;;0.10;91.40;;;;;;4969529;28;20058;-80
2023/03/29 05:12:43;;;;;;;9.63;1.70;;;0.20;91.70;;;;;;4973101;28;20985;-80
2023/03/29 05:15:10;;;;;;;5.90;1.55;;;0.30;91.30;;;;;;4965554;28;20106;-80
2023/03/29 05:17:38;;;;;;;4.43;2.10;;;0.30;91.00;;;;;;4977617;28;20157;-80
2023/03/29 05:20:10;;;;;;;6.65;2.40;;;0.30;90.90;;;;;;4975783;28;20053;-81
2023/03/29 05:22:39;;;;;;;6.68;1.60;;;0.40;91.00;;;;;;4986678;28;20049;-80
2023/03/29 05:25:12;;;;;;;7.63;1.85;;;0.40;90.90;;;;;;4972511;28;20051;-80
2023/03/29 05:27:42;;;;;;;5.85;2.47;;;0.40;91.00;;;;;;4971252;28;20069;-81
2023/03/29 05:30:11;;;;;;;6.60;2.40;;;0.50;91.20;;;;;;4977188;28;20589;-81
2023/03/29 05:32:46;;;;;;;8.23;2.25;;;0.50;90.90;;;;;;4969507;28;21005;-80
2023/03/29 05:35:17;;;;;;;6.03;2.17;;;0.50;90.80;;;;;;4966016;28;20062;-80
2023/03/29 05:37:46;;;;;;;7.32;2.50;;;0.50;90.70;;;;;;4968911;28;20192;-80
2023/03/29 05:40:13;;;;;;;10.80;4.72;;;0.60;90.80;;;;;;4962412;28;20506;-81
2023/03/29 05:43:09;;;;;;;7.25;3.35;;;0.60;90.80;;;;;;4984747;28;20078;-79
2023/03/29 05:45:36;;;;;;;5.20;2.60;;;0.70;90.80;;;;;;4960755;28;21055;-80
2023/03/29 05:48:04;;;;;;;6.15;2.22;;;0.70;90.60;;;;;;4966936;28;20148;-80
2023/03/29 05:50:32;;;;;;;5.70;2.58;;;0.70;90.50;;;;;;4966469;28;20051;-80
2023/03/29 05:52:59;;;;;;;8.18;3.78;;;0.80;90.40;;;;;;4971247;28;20050;-80
2023/03/29 05:55:27;;;;;;;6.95;3.25;;;0.80;90.40;;;;;;4957104;28;20065;-80
2023/03/29 05:57:54;;;;;;;6.20;2.60;;;0.90;90.40;;;;;;4935622;28;20054;-80
2023/03/29 06:00:30;;;;;;;9.55;2.83;;;1.00;90.60;;;;;;4970158;28;20883;-80
2023/03/29 06:03:22;;;;;;;8.48;2.83;;;1.00;90.40;;;;;;4951675;28;20046;-80
2023/03/29 06:06:03;;;;;;;10.10;3.40;;;1.10;90.10;;;;;;4951687;28;20752;-80
2023/03/29 06:08:33;;;;;;;8.65;3.47;;;1.10;89.90;;;;;;4957433;28;22219;-81
2023/03/29 06:11:09;;;;;;;7.00;2.30;;;1.10;89.60;;;;;;4956302;28;20047;-81
2023/03/29 06:13:56;;;;;;;6.72;2.42;;;1.10;89.20;;;;;;4951242;28;20112;-81
2023/03/29 06:16:24;;;;;;;7.85;2.58;;;1.20;90.00;;;;;;4941629;28;20669;-80
2023/03/29 06:18:52;;;;;;;13.02;7.47;;;1.40;89.80;;;;;;4936957;28;20429;-79
2023/03/29 06:21:19;;;;;;;9.40;3.47;;;1.40;88.70;;;;;;4936281;28;20212;-80
2023/03/29 06:23:47;;;;;;;7.05;3.00;;;1.50;88.90;;;;;;4949482;28;20054;-81
2023/03/29 06:26:16;;;;;;;9.02;4.00;;;1.50;87.70;;;;;;4957542;28;20050;-80
2023/03/29 06:28:45;;;;;;;9.75;3.13;;;1.70;88.00;;;;;;4950486;28;20054;-80
2023/03/29 06:31:16;;;;;;;9.38;3.17;;;1.80;88.20;;;;;;4961538;28;20053;-81
2023/03/29 06:33:43;;;;;;;9.48;3.60;;;1.80;87.70;;;;;;4970650;28;20152;-81
2023/03/29 06:36:18;;;;;;;5.63;2.60;;;2.00;88.40;;;;;;4950794;28;20137;-81
2023/03/29 06:38:46;;;;;;;7.03;2.88;;;2.10;87.70;;;;;;4947625;28;20058;-81
2023/03/29 06:41:33;;;;;;;11.52;3.08;;;2.20;87.20;;;;;;4976432;28;22334;-81
2023/03/29 06:44:07;;;;;;;11.52;2.58;;;2.20;86.90;;;;;;4963850;28;20060;-80
2023/03/29 06:46:41;;;;;;;11.18;3.08;;;2.30;85.40;;;;;;4973403;28;20050;-80
2023/03/29 06:49:08;;;;;;;8.93;3.03;;;2.20;84.80;;;;;;4962544;28;20142;-80
2023/03/29 06:51:53;;;;;;;56.13;16.65;;;2.40;85.80;;;;;;4966633;28;21016;-80
2023/03/29 06:54:21;;;;;;;16.23;6.03;;;2.50;86.40;;;;;;4934291;28;20513;-80
2023/03/29 06:56:58;;;;;;;11.85;5.70;;;2.60;85.80;;;;;;4958278;28;20603;-80
2023/03/29 06:59:27;;;;;;;19.02;7.90;;;2.70;85.40;;;;;;4960353;28;20046;-80
2023/03/29 07:01:57;;;;;;;29.75;12.88;;;2.80;85.30;;;;;;4955532;28;20062;-81
2023/03/29 07:04:44;;;;;;;178.75;63.28;;;2.80;84.80;;;;;;4970082;28;20085;-80
2023/03/29 07:07:21;;;;;;;27.25;12.05;;;2.90;83.00;;;;;;4965406;28;20077;-79
2023/03/29 07:10:00;;;;;;;222.75;84.50;;;3.00;83.10;;;;;;4965399;28;20061;-80
2023/03/29 07:12:37;;;;;;;137.63;60.85;;;3.10;82.70;;;;;;4950403;28;20065;-81
2023/03/29 07:15:05;;;;;;;15.85;8.15;;;3.10;82.00;;;;;;4960240;28;20046;-81
2023/03/29 07:17:51;;;;;;;10.25;5.05;;;3.20;81.70;;;;;;4974930;28;20729;-81
2023/03/29 07:20:21;;;;;;;47.00;22.92;;;3.20;82.00;;;;;;4937109;28;20050;-80
2023/03/29 07:22:57;;;;;;;22.50;8.68;;;4.30;81.50;;;;;;4947026;28;20648;-80
2023/03/29 07:25:26;;;;;;;12.73;4.60;;;3.30;80.30;;;;;;4965648;28;20065;-81
2023/03/29 07:27:53;;;;;;;15.27;6.05;;;3.40;80.80;;;;;;4975426;28;20039;-80
2023/03/29 07:30:23;;;;;;;25.33;13.65;;;3.40;80.80;;;;;;4955048;28;20588;-80
2023/03/29 07:32:52;;;;;;;9.88;3.92;;;3.50;80.80;;;;;;4958625;28;20096;-81
2023/03/29 07:35:26;;;;;;;7.00;3.53;;;3.50;79.60;;;;;;4953146;28;20051;-81
2023/03/29 07:37:58;;;;;;;11.13;2.88;;;3.50;80.10;;;;;;4965740;28;20506;-81
2023/03/29 07:40:26;;;;;;;5.53;2.55;;;3.50;79.50;;;;;;4954948;28;20054;-80
2023/03/29 07:42:57;;;;;;;7.50;3.30;;;3.60;80.10;;;;;;4970469;28;20054;-81
2023/03/29 07:45:29;;;;;;;5.85;2.97;;;3.70;77.90;;;;;;4980893;28;20421;-79
2023/03/29 07:48:07;;;;;;;8.90;4.07;;;3.80;77.70;;;;;;4950786;28;20057;-80
2023/03/29 07:50:58;;;;;;;18.70;8.45;;;4.00;76.90;;;;;;4938407;28;20223;-80
2023/03/29 07:53:32;;;;;;;8.13;3.55;;;4.20;76.00;;;;;;4947957;28;20055;-79
2023/03/29 07:56:02;;;;;;;7.13;3.03;;;3.10;74.10;;;;;;4944902;28;20102;-80
2023/03/29 07:58:52;;;;;;;8.75;2.53;;;4.40;73.10;;;;;;4925957;28;20279;-80
2023/03/29 08:01:20;;;;;;;10.10;3.28;;;4.70;73.70;;;;;;4912029;28;20058;-79
2023/03/29 08:04:06;;;;;;;5.85;2.15;;;4.80;72.90;;;;;;4950675;28;20290;-80
2023/03/29 08:07:06;;;;;;;5.65;2.22;;;4.70;71.60;;;;;;4906859;28;20422;-81
2023/03/29 08:09:57;;;;;;;5.25;1.80;;;4.90;71.90;;;;;;4940741;28;20063;-80
2023/03/29 08:12:46;;;;;;;6.32;2.72;;;4.80;69.00;;;;;;4930080;28;20078;-80
2023/03/29 08:15:14;;;;;;;3.72;1.45;;;5.00;69.20;;;;;;4943088;28;20054;-80
2023/03/29 08:17:42;;;;;;;3.80;1.20;;;5.00;68.40;;;;;;4951020;28;20066;-80
2023/03/29 08:20:12;;;;;;;3.28;1.05;;;5.00;67.50;;;;;;4936668;28;20506;-80
2023/03/29 08:22:42;;;;;;;3.78;1.13;;;5.30;67.90;;;;;;4940585;28;20046;-79
2023/03/29 08:25:45;;;;;;;3.00;1.23;;;5.30;67.10;;;;;;4958995;28;20054;-80
2023/03/29 08:28:14;;;;;;;3.75;1.20;;;5.20;66.90;;;;;;4953787;28;20082;-80
2023/03/29 08:30:46;;;;;;;2.97;1.15;;;5.20;65.70;;;;;;4953045;28;20043;-80
2023/03/29 08:33:14;;;;;;;3.45;1.20;;;5.20;64.60;;;;;;4945708;28;20077;-80
2023/03/29 08:35:42;;;;;;;5.25;0.80;;;5.20;64.20;;;;;;4961674;28;20208;-81
2023/03/29 08:38:31;;;;;;;4.13;1.17;;;5.20;64.40;;;;;;4988867;28;20051;-80
2023/03/29 08:40:58;;;;;;;2.90;1.08;;;5.10;63.80;;;;;;4977048;28;20062;-80
2023/03/29 08:43:49;;;;;;;5.22;1.33;;;5.30;63.50;;;;;;4968552;28;20058;-81
2023/03/29 08:46:46;;;;;;;2.03;0.75;;;5.40;62.20;;;;;;4967975;28;20051;-80
2023/03/29 08:49:31;;;;;;;2.65;0.70;;;5.50;62.00;;;;;;4960520;28;20054;-80
2023/03/29 08:52:04;;;;;;;4.80;0.90;;;5.70;61.80;;;;;;4944676;28;20057;-80
2023/03/29 08:54:40;;;;;;;4.82;1.52;;;5.90;61.70;;;;;;4982008;28;20112;-80
2023/03/29 08:57:40;;;;;;;3.35;1.38;;;6.00;61.70;;;;;;4964602;28;20062;-80
2023/03/29 09:00:35;;;;;;;3.42;0.82;;;6.30;61.60;;;;;;4973995;28;20050;-80
2023/03/29 09:03:12;;;;;;;4.28;0.70;;;6.60;60.10;;;;;;4938931;28;20553;-80
2023/03/29 09:05:46;;;;;;;2.28;0.57;;;6.70;59.60;;;;;;4946758;28;20042;-80
2023/03/29 09:08:24;;;;;;;4.13;0.90;;;6.70;58.40;;;;;;4968537;28;20050;-80
2023/03/29 09:11:16;;;;;;;3.05;0.57;;;6.70;57.60;;;;;;4944197;28;20053;-79
2023/03/29 09:14:23;;;;;;;2.35;0.82;;;6.90;58.30;;;;;;4956514;28;20050;-81
2023/03/29 09:17:03;;;;;;;2.38;0.73;;;6.70;57.00;;;;;;4950838;28;20179;-80
2023/03/29 09:19:48;;;;;;;3.65;1.13;;;6.80;57.10;;;;;;4953660;28;20050;-80
2023/03/29 09:22:45;;;;;;;4.57;0.73;;;7.00;56.70;;;;;;4935051;28;20175;-80
2023/03/29 09:25:36;;;;;;;2.92;1.48;;;7.10;57.50;;;;;;4931773;28;20047;-79
2023/03/29 09:28:25;;;;;;;4.13;1.30;;;7.40;58.40;;;;;;4943564;28;20050;-79
2023/03/29 09:31:12;;;;;;;2.80;0.88;;;7.40;57.70;;;;;;4964297;28;20043;-81
2023/03/29 09:34:00;;;;;;;5.97;2.00;;;7.50;56.90;;;;;;4952914;28;20050;-79
2023/03/29 09:37:02;;;;;;;2.75;0.55;;;7.70;57.60;;;;;;4959249;28;20844;-80
2023/03/29 09:39:29;;;;;;;7.57;2.55;;;7.60;54.90;;;;;;4971196;28;20060;-80
2023/03/29 09:42:08;;;;;;;10.60;3.30;;;7.70;56.20;;;;;;4961700;28;20742;-80
2023/03/29 09:44:46;;;;;;;4.07;1.50;;;7.70;56.70;;;;;;4944362;28;20046;-80
2023/03/29 09:47:55;;;;;;;4.38;1.02;;;7.80;56.20;;;;;;4954465;28;20097;-79
2023/03/29 09:50:37;;;;;;;6.63;1.92;;;8.00;57.90;;;;;;4942771;28;20050;-80
2023/03/29 09:53:08;;;;;;;2.97;0.90;;;8.10;56.80;;;;;;4954387;28;20551;-80
2023/03/29 09:55:43;;;;;;;4.28;0.45;;;8.00;54.00;;;;;;4952427;28;20061;-79
2023/03/29 09:58:31;;;;;;;1.85;0.40;;;7.80;53.40;;;;;;4955897;28;20821;-80
2023/03/29 10:01:04;;;;;;;1.50;0.57;;;8.00;54.30;;;;;;4964466;28;20517;-79
2023/03/29 10:03:33;;;;;;;4.05;1.13;;;8.30;55.80;;;;;;4957397;28;20054;-79
2023/03/29 10:06:10;;;;;;;2.42;0.73;;;8.60;55.40;;;;;;4947479;28;20054;-79
2023/03/29 10:08:45;;;;;;;;;;;8.80;55.90;;;;;;4955813;28;20077;-79
2023/03/29 10:11:22;;;;;;;6.13;1.30;;;9.00;55.40;;;;;;4926730;28;19934;-80
2023/03/29 10:13:56;;;;;;;3.60;0.70;;;8.90;54.00;;;;;;4951984;28;20931;-80
2023/03/29 10:16:28;;;;;;;2.33;0.45;;;8.90;54.50;;;;;;4961151;28;20073;-79
2023/03/29 10:18:56;;;;;;;;;;;9.00;53.70;;;;;;4947795;28;20046;-79
2023/03/29 10:21:23;;;;;;;3.40;1.00;;;9.00;53.90;;;;;;4947595;28;19922;-81
2023/03/29 10:24:10;;;;;;;3.28;0.60;;;8.70;52.90;;;;;;4955384;28;20232;-80
2023/03/29 10:26:37;;;;;;;2.13;1.00;;;8.90;53.40;;;;;;4964301;28;20148;-80
2023/03/29 10:29:07;;;;;;;3.22;0.80;;;8.50;54.80;;;;;;4974145;28;21156;-80
2023/03/29 10:31:40;;;;;;;4.40;1.00;;;8.90;55.00;;;;;;4960524;28;20566;-79
2023/03/29 10:34:09;;;;;;;5.25;1.83;;;9.20;55.50;;;;;;4953509;28;22032;-80
2023/03/29 10:36:40;;;;;;;4.15;0.90;;;9.40;57.20;;;;;;4982665;28;20064;-81
2023/03/29 10:39:11;;;;;;;2.60;0.85;;;9.50;56.10;;;;;;4961171;28;20053;-78
2023/03/29 10:41:39;;;;;;;2.17;0.50;;;9.00;54.00;;;;;;4953035;28;20236;-81
2023/03/29 10:44:22;;;;;;;2.15;0.70;;;9.00;55.00;;;;;;4979674;28;20057;-79
2023/03/29 10:46:50;;;;;;;3.63;1.40;;;9.30;57.00;;;;;;4970834;28;20054;-79
2023/03/29 10:49:19;;;;;;;1.73;0.63;;;9.40;57.10;;;;;;4973646;28;20322;-78
2023/03/29 10:51:48;;;;;;;4.30;1.00;;;9.40;55.40;;;;;;4948874;28;20042;-81
2023/03/29 10:54:22;;;;;;;4.28;1.35;;;9.40;55.60;;;;;;4942436;28;20116;-78
2023/03/29 10:57:00;;;;;;;9.52;2.72;;;9.60;56.20;;;;;;4961431;28;20042;-80
2023/03/29 10:59:46;;;;;;;4.72;1.83;;;9.80;57.20;;;;;;4935264;28;20805;-79
2023/03/29 11:02:16;;;;;;;5.05;1.80;;;9.80;56.90;;;;;;4957169;28;20057;-80
2023/03/29 11:04:55;;;;;;;2.97;1.00;;;9.70;55.00;;;;;;4955626;28;20050;-80
2023/03/29 11:07:40;;;;;;;3.42;0.80;;;9.30;55.00;;;;;;4961685;28;20061;-80
2023/03/29 11:10:19;;;;;;;2.63;0.85;;;9.50;56.60;;;;;;4964918;28;20157;-80
2023/03/29 11:13:08;;;;;;;2.90;0.68;;;9.50;55.40;;;;;;4952630;28;20054;-80
2023/03/29 11:16:01;;;;;;;4.28;1.42;;;9.50;54.10;;;;;;4949533;28;20184;-81
2023/03/29 11:18:52;;;;;;;3.05;1.20;;;9.80;55.70;;;;;;4967686;28;20112;-81
2023/03/29 11:21:41;;;;;;;5.40;1.70;;;9.90;56.40;;;;;;4951513;28;20189;-80
2023/03/29 11:24:27;;;;;;;7.22;2.33;;;10.00;56.90;;;;;;4941436;28;20718;-79
2023/03/29 11:27:03;;;;;;;4.03;1.60;;;10.10;57.00;;;;;;4941077;28;20062;-80
2023/03/29 11:29:43;;;;;;;5.45;1.30;;;10.20;56.50;;;;;;4934843;28;20069;-79
2023/03/29 11:32:13;;;;;;;3.60;1.63;;;10.40;56.40;;;;;;4941062;28;20105;-80
2023/03/29 11:35:29;;;;;;;3.17;0.93;;;10.30;56.40;;;;;;4944016;28;20050;-80
2023/03/29 11:38:21;;;;;;;4.60;1.65;;;9.70;53.60;;;;;;4921454;28;20145;-80
2023/03/29 11:41:01;;;;;;;2.78;1.02;;;10.00;57.30;;;;;;4935852;28;22594;-79
2023/03/29 11:43:36;;;;;;;2.95;1.00;;;10.30;57.10;;;;;;4955279;28;20188;-80
2023/03/29 11:46:16;;;;;;;3.40;1.35;;;10.30;56.70;;;;;;4952821;28;20062;-78
2023/03/29 11:48:52;;;;;;;3.55;1.13;;;10.00;57.60;;;;;;4945920;28;20377;-79
2023/03/29 11:51:26;;;;;;;2.05;0.75;;;10.00;56.70;;;;;;4943299;28;20082;-79
2023/03/29 11:54:21;;;;;;;3.13;1.27;;;9.90;56.20;;;;;;4956426;28;20173;-80
2023/03/29 11:56:53;;;;;;;2.85;0.90;;;10.20;57.70;;;;;;4973569;28;20068;-80
2023/03/29 11:59:36;;;;;;;5.20;1.40;;;9.90;55.40;;;;;;4929631;28;20062;-78
2023/03/29 12:02:06;;;;;;;2.20;0.73;;;10.30;57.00;;;;;;4948661;28;20050;-78
2023/03/29 12:04:39;;;;;;;3.55;1.27;;;10.50;56.10;;;;;;4941719;28;20061;-80
2023/03/29 12:07:43;;;;;;;7.65;2.42;;;10.50;55.40;;;;;;4957071;28;20058;-80
2023/03/29 12:10:20;;;;;;;3.80;1.45;;;10.80;56.00;;;;;;4931614;28;20065;-80
2023/03/29 12:13:15;;;;;;;6.45;2.10;;;10.30;55.90;;;;;;4931825;28;20420;-80
2023/03/29 12:16:07;;;;;;;4.40;2.55;;;10.70;58.00;;;;;;4947566;28;20065;-80
2023/03/29 12:18:44;;;;;;;4.15;1.63;;;10.40;55.40;;;;;;4944339;28;22290;-79
2023/03/29 12:21:14;;;;;;;3.60;1.30;;;11.00;55.90;;;;;;4955747;28;20065;-80
2023/03/29 12:23:44;;;;;;;4.05;1.50;;;10.80;54.70;;;;;;4950573;28;20140;-79
2023/03/29 12:26:20;;;;;;;4.97;1.75;;;10.40;56.90;;;;;;4946578;28;20046;-80
2023/03/29 12:29:02;;;;;;;4.38;1.33;;;10.20;56.00;;;;;;4942577;28;20065;-80
2023/03/29 12:31:30;;;;;;;4.25;0.90;;;9.80;56.40;;;;;;4956945;28;20426;-80
2023/03/29 12:34:20;;;;;;;5.53;1.83;;;9.80;58.00;;;;;;4940849;28;20058;-80
2023/03/29 12:37:34;;;;;;;4.30;1.30;;;10.10;58.90;;;;;;4956366;28;20643;-79
2023/03/29 12:40:24;;;;;;;2.70;1.25;;;10.20;56.50;;;;;;4965256;28;20061;-80
2023/03/29 12:43:26;;;;;;;4.47;1.83;;;10.60;56.70;;;;;;4962937;28;20061;-81
2023/03/29 12:46:24;;;;;;;6.65;2.10;;;10.70;56.50;;;;;;4940006;28;22384;-80
2023/03/29 12:49:04;;;;;;;3.47;1.95;;;10.40;55.20;;;;;;4951704;28;20168;-79
2023/03/29 12:51:33;;;;;;;17.60;8.48;;;10.50;57.60;;;;;;4951325;28;20049;-80
2023/03/29 12:54:15;;;;;;;2.45;1.30;;;10.60;58.30;;;;;;4960644;28;20054;-80
2023/03/29 12:56:51;;;;;;;4.97;1.80;;;10.20;57.10;;;;;;4942618;28;20061;-80
2023/03/29 12:59:38;;;;;;;5.68;2.20;;;10.30;58.00;;;;;;4966959;28;20080;-80
2023/03/29 13:02:14;;;;;;;5.18;1.27;;;10.40;58.80;;;;;;4976761;28;20047;-80
2023/03/29 13:04:56;;;;;;;2.67;1.15;;;10.20;57.00;;;;;;4958640;28;20958;-80
2023/03/29 13:07:26;;;;;;;4.33;1.50;;;10.00;57.30;;;;;;4976130;28;20050;-79
2023/03/29 13:10:07;;;;;;;2.35;1.40;;;10.00;57.50;;;;;;4956545;28;20298;-80
2023/03/29 13:12:40;;;;;;;14.68;6.47;;;10.20;58.90;;;;;;4955690;28;20129;-81
2023/03/29 13:15:13;;;;;;;23.63;10.75;;;10.40;60.10;;;;;;4971609;28;20053;-80
2023/03/29 13:17:58;;;;;;;18.35;8.25;;;10.50;60.40;;;;;;4954787;28;20058;-79
2023/03/29 13:21:11;;;;;;;6.32;2.05;;;10.70;60.00;;;;;;4955324;28;20594;-80
2023/03/29 13:23:53;;;;;;;5.70;2.45;;;10.70;58.90;;;;;;4949989;28;20058;-81
2023/03/29 13:26:26;;;;;;;4.43;1.83;;;10.40;58.90;;;;;;4944404;28;20537;-82
2023/03/29 13:28:56;;;;;;;4.57;1.60;;;9.80;58.50;;;;;;4931027;28;20046;-82
2023/03/29 13:31:52;;;;;;;3.25;1.00;;;10.00;59.00;;;;;;4944694;28;20038;-82
2023/03/29 13:34:52;;;;;;;3.83;1.50;;;10.30;58.70;;;;;;4931875;28;20062;-80
2023/03/29 13:37:50;;;;;;;2.78;1.40;;;10.60;59.20;;;;;;4946359;28;20058;-81
2023/03/29 13:40:40;;;;;;;4.95;1.70;;;10.40;58.00;;;;;;4937030;28;20060;-80
2023/03/29 13:43:09;;;;;;;2.15;1.25;;;10.10;59.30;;;;;;4951186;28;20054;-80